createdAt,value
2023-03-16T00:00:56.829Z,100.00
2023-03-16T00:03:24.533Z,100.00
2023-03-16T00:05:54.319Z,100.00
2023-03-16T00:08:21.904Z,100.00
2023-03-16T00:10:49.518Z,100.00
2023-03-16T00:13:20.005Z,100.00
2023-03-16T00:15:52.395Z,100.00
2023-03-16T00:18:20.163Z,100.00
2023-03-16T00:20:51.772Z,100.00
2023-03-16T00:23:19.583Z,100.00
2023-03-16T00:25:47.210Z,100.00
2023-03-16T00:28:14.837Z,100.00
2023-03-16T00:30:47.442Z,100.00
2023-03-16T00:33:15.088Z,100.00
2023-03-16T00:35:50.728Z,100.00
2023-03-16T00:38:18.616Z,100.00
2023-03-16T00:40:46.344Z,100.00
2023-03-16T00:43:18.577Z,100.00
2023-03-16T00:45:47.663Z,100.00
2023-03-16T00:48:16.440Z,100.00
2023-03-16T00:50:44.208Z,100.00
2023-03-16T00:53:11.859Z,100.00
2023-03-16T00:55:39.507Z,100.00
2023-03-16T00:58:07.157Z,100.00
2023-03-16T01:00:36.092Z,100.00
2023-03-16T01:03:05.089Z,100.00
2023-03-16T01:05:33.721Z,100.00
2023-03-16T01:08:02.806Z,100.00
2023-03-16T01:10:30.575Z,100.00
2023-03-16T01:12:58.274Z,100.00
2023-03-16T01:15:25.914Z,100.00
2023-03-16T01:17:54.393Z,100.00
2023-03-16T01:20:23.890Z,100.00
2023-03-16T01:22:51.885Z,100.00
2023-03-16T01:25:20.582Z,100.00
2023-03-16T01:27:48.483Z,100.00
2023-03-16T01:30:16.346Z,100.00
2023-03-16T01:32:44.138Z,100.00
2023-03-16T01:35:11.914Z,100.00
2023-03-16T01:37:41.397Z,100.00
2023-03-16T01:40:12.273Z,100.00
2023-03-16T01:42:46.806Z,100.00
2023-03-16T01:45:52.724Z,100.00
2023-03-16T01:48:22.674Z,100.00
2023-03-16T01:50:52.306Z,100.00
2023-03-16T01:53:22.030Z,100.00
2023-03-16T01:55:50.154Z,100.00
2023-03-16T01:58:18.652Z,100.00
2023-03-16T02:00:46.250Z,100.00
2023-03-16T02:03:16.590Z,100.00
2023-03-16T02:05:45.829Z,100.00
2023-03-16T02:08:13.440Z,100.00
2023-03-16T02:10:42.398Z,100.00
2023-03-16T02:13:11.178Z,100.00
2023-03-16T02:15:39.024Z,100.00
2023-03-16T02:18:07.842Z,100.00
2023-03-16T02:20:40.898Z,100.00
2023-03-16T02:23:18.561Z,100.00
2023-03-16T02:25:52.688Z,100.00
2023-03-16T02:28:26.273Z,100.00
2023-03-16T02:30:55.307Z,100.00
2023-03-16T02:33:23.708Z,100.00
2023-03-16T02:35:51.726Z,100.00
2023-03-16T02:38:19.396Z,100.00
2023-03-16T02:40:58.159Z,100.00
2023-03-16T02:43:30.162Z,100.00
2023-03-16T02:46:00.770Z,100.00
2023-03-16T02:48:32.731Z,100.00
2023-03-16T02:51:00.758Z,100.00
2023-03-16T02:53:28.442Z,100.00
2023-03-16T02:55:56.183Z,100.00
2023-03-16T02:58:23.795Z,100.00
2023-03-16T03:00:51.468Z,100.00
2023-03-16T03:03:20.472Z,100.00
2023-03-16T03:05:48.363Z,100.00
2023-03-16T03:08:16.387Z,100.00
2023-03-16T03:10:44.046Z,100.00
2023-03-16T03:13:12.298Z,100.00
2023-03-16T03:15:40.375Z,100.00
2023-03-16T03:18:08.977Z,100.00
2023-03-16T03:20:37.991Z,100.00
2023-03-16T03:23:05.687Z,100.00
2023-03-16T03:25:34.846Z,100.00
2023-03-16T03:28:05.474Z,100.00
2023-03-16T03:30:33.479Z,100.00
2023-03-16T03:33:01.526Z,100.00
2023-03-16T03:35:29.249Z,100.00
2023-03-16T03:37:58.249Z,100.00
2023-03-16T03:40:26.420Z,100.00
2023-03-16T03:42:54.168Z,100.00
2023-03-16T03:45:21.849Z,100.00
2023-03-16T03:47:49.499Z,100.00
2023-03-16T03:50:17.449Z,100.00
2023-03-16T03:52:45.075Z,100.00
2023-03-16T03:55:14.300Z,100.00
2023-03-16T03:57:42.095Z,100.00
2023-03-16T04:00:11.549Z,100.00
2023-03-16T04:02:39.519Z,100.00
2023-03-16T04:05:08.031Z,100.00
2023-03-16T04:07:35.718Z,100.00
2023-03-16T04:10:03.376Z,100.00
2023-03-16T04:12:32.406Z,100.00
2023-03-16T04:15:00.047Z,100.00
2023-03-16T04:17:27.717Z,100.00
2023-03-16T04:19:55.376Z,100.00
2023-03-16T04:22:23.589Z,100.00
2023-03-16T04:24:52.251Z,100.00
2023-03-16T04:27:19.880Z,100.00
2023-03-16T04:29:48.835Z,100.00
2023-03-16T04:32:16.475Z,100.00
2023-03-16T04:34:44.267Z,100.00
2023-03-16T04:37:12.196Z,100.00
2023-03-16T04:39:39.948Z,100.00
2023-03-16T04:42:08.019Z,100.00
2023-03-16T04:44:43.979Z,100.00
2023-03-16T04:47:13.665Z,100.00
2023-03-16T04:49:41.557Z,100.00
2023-03-16T04:52:09.601Z,100.00
2023-03-16T04:54:37.283Z,100.00
2023-03-16T04:57:05.760Z,100.00
2023-03-16T04:59:33.418Z,100.00
2023-03-16T05:02:01.037Z,100.00
2023-03-16T05:04:29.981Z,100.00
2023-03-16T05:06:57.614Z,100.00
2023-03-16T05:09:25.857Z,100.00
2023-03-16T05:11:53.478Z,100.00
2023-03-16T05:14:21.113Z,100.00
2023-03-16T05:16:48.746Z,100.00
2023-03-16T05:19:16.349Z,100.00
2023-03-16T05:21:46.082Z,100.00
2023-03-16T05:24:13.693Z,100.00
2023-03-16T05:26:41.318Z,100.00
2023-03-16T05:29:11.050Z,100.00
2023-03-16T05:31:38.720Z,100.00
2023-03-16T05:34:06.325Z,100.00
2023-03-16T05:36:35.907Z,100.00
2023-03-16T05:39:05.082Z,100.00
2023-03-16T05:41:32.761Z,100.00
2023-03-16T05:44:00.636Z,100.00
2023-03-16T05:46:28.250Z,100.00
2023-03-16T05:48:55.866Z,100.00
2023-03-16T05:51:26.316Z,100.00
2023-03-16T05:53:56.667Z,100.00
2023-03-16T05:56:26.723Z,100.00
2023-03-16T05:58:54.968Z,100.00
2023-03-16T06:01:22.824Z,100.00
2023-03-16T06:03:51.902Z,100.00
2023-03-16T06:06:20.465Z,100.00
2023-03-16T06:08:48.086Z,100.00
2023-03-16T06:11:16.037Z,100.00
2023-03-16T06:13:45.337Z,100.00
2023-03-16T06:16:14.373Z,100.00
2023-03-16T06:18:42.121Z,100.00
2023-03-16T06:21:09.763Z,100.00
2023-03-16T06:23:37.368Z,100.00
2023-03-16T06:26:05.376Z,100.00
2023-03-16T06:28:32.981Z,100.00
2023-03-16T06:31:02.006Z,100.00
2023-03-16T06:33:29.678Z,100.00
2023-03-16T06:35:57.354Z,100.00
2023-03-16T06:38:25.064Z,100.00
2023-03-16T06:40:53.822Z,100.00
2023-03-16T06:43:21.455Z,100.00
2023-03-16T06:45:49.154Z,100.00
2023-03-16T06:48:18.178Z,100.00
2023-03-16T06:50:46.184Z,100.00
2023-03-16T06:53:13.936Z,100.00
2023-03-16T06:55:41.645Z,100.00
2023-03-16T06:58:09.304Z,100.00
2023-03-16T07:00:36.939Z,100.00
2023-03-16T07:03:04.953Z,100.00
2023-03-16T07:05:34.078Z,100.00
2023-03-16T07:08:02.198Z,100.00
2023-03-16T07:10:30.249Z,100.00
2023-03-16T07:12:58.029Z,100.00
2023-03-16T07:15:26.602Z,100.00
2023-03-16T07:17:54.313Z,100.00
2023-03-16T07:20:23.660Z,100.00
2023-03-16T07:22:52.907Z,100.00
2023-03-16T07:25:21.347Z,100.00
2023-03-16T07:27:49.026Z,100.00
2023-03-16T07:30:17.011Z,100.00
2023-03-16T07:32:44.723Z,100.00
2023-03-16T07:35:12.514Z,100.00
2023-03-16T07:37:40.136Z,100.00
2023-03-16T07:40:11.210Z,100.00
2023-03-16T07:42:38.857Z,100.00
2023-03-16T07:45:07.830Z,100.00
2023-03-16T07:47:35.485Z,98.76
2023-03-16T07:50:03.259Z,99.61
2023-03-16T07:52:30.881Z,98.69
2023-03-16T07:54:58.544Z,93.45
2023-03-16T07:57:27.521Z,95.99
2023-03-16T07:59:55.192Z,93.58
2023-03-16T08:02:22.944Z,93.18
2023-03-16T08:04:51.541Z,93.13
2023-03-16T08:07:19.269Z,91.01
2023-03-16T08:09:47.113Z,94.14
2023-03-16T08:12:14.822Z,91.17
2023-03-16T08:14:45.712Z,89.46
2023-03-16T08:17:13.690Z,85.56
2023-03-16T08:19:43.074Z,87.06
2023-03-16T08:22:10.703Z,87.85
2023-03-16T08:24:38.414Z,90.83
2023-03-16T08:27:06.155Z,89.74
2023-03-16T08:29:34.811Z,90.34
2023-03-16T08:32:03.852Z,90.00
2023-03-16T08:34:31.853Z,87.89
2023-03-16T08:37:01.114Z,86.08
2023-03-16T08:39:29.091Z,86.48
2023-03-16T08:41:57.324Z,83.40
2023-03-16T08:44:26.117Z,84.54
2023-03-16T08:46:53.821Z,87.48
2023-03-16T08:49:23.992Z,84.66
2023-03-16T08:51:51.806Z,81.13
2023-03-16T08:54:19.573Z,83.85
2023-03-16T08:56:47.187Z,84.51
2023-03-16T08:59:28.817Z,84.04
2023-03-16T09:01:57.225Z,86.48
2023-03-16T09:04:26.488Z,79.54
2023-03-16T09:07:09.998Z,82.55
2023-03-16T09:09:37.834Z,81.71
2023-03-16T09:12:06.520Z,80.82
2023-03-16T09:14:34.362Z,74.93
2023-03-16T09:17:01.970Z,79.59
2023-03-16T09:19:47.868Z,76.43
2023-03-16T09:22:18.515Z,78.27
2023-03-16T09:24:46.236Z,75.29
2023-03-16T09:27:13.915Z,73.55
2023-03-16T09:29:42.605Z,72.38
2023-03-16T09:32:11.087Z,71.03
2023-03-16T09:34:40.220Z,75.08
2023-03-16T09:37:08.236Z,76.73
2023-03-16T09:39:37.107Z,68.97
2023-03-16T09:42:13.887Z,74.14
2023-03-16T09:44:45.302Z,73.81
2023-03-16T09:47:13.544Z,74.53
2023-03-16T09:49:45.430Z,75.08
2023-03-16T09:52:21.678Z,74.23
2023-03-16T09:54:52.522Z,76.31
2023-03-16T09:57:26.560Z,71.64
2023-03-16T09:59:54.955Z,73.29
2023-03-16T10:02:39.682Z,80.20
2023-03-16T10:05:10.556Z,75.37
2023-03-16T10:07:44.281Z,70.98
2023-03-16T10:10:22.202Z,74.98
2023-03-16T10:12:52.603Z,73.48
2023-03-16T10:15:21.969Z,75.80
2023-03-16T10:17:53.779Z,72.56
2023-03-16T10:20:24.439Z,70.69
2023-03-16T10:22:53.607Z,72.78
2023-03-16T10:25:24.103Z,74.91
2023-03-16T10:27:52.007Z,70.31
2023-03-16T10:30:23.443Z,69.30
2023-03-16T10:32:51.476Z,68.57
2023-03-16T10:35:31.092Z,66.65
2023-03-16T10:37:58.989Z,64.78
2023-03-16T10:40:27.950Z,64.51
2023-03-16T10:42:55.942Z,66.13
2023-03-16T10:45:27.415Z,67.87
2023-03-16T10:47:56.020Z,59.73
2023-03-16T10:50:27.759Z,68.21
2023-03-16T10:52:57.608Z,63.45
2023-03-16T10:55:30.679Z,63.91
2023-03-16T10:57:58.504Z,64.14
2023-03-16T11:00:28.987Z,61.36
2023-03-16T11:02:57.405Z,63.27
2023-03-16T11:05:31.716Z,66.38
2023-03-16T11:08:10.409Z,60.83
2023-03-16T11:10:49.422Z,62.14
2023-03-16T11:13:19.531Z,52.14
2023-03-16T11:15:52.130Z,57.48
2023-03-16T11:18:31.452Z,56.17
2023-03-16T11:21:03.702Z,53.81
2023-03-16T11:23:31.637Z,53.51
2023-03-16T11:26:01.131Z,54.25
2023-03-16T11:28:35.781Z,53.37
2023-03-16T11:31:10.082Z,50.61
2023-03-16T11:33:38.055Z,50.80
2023-03-16T11:36:27.733Z,51.95
2023-03-16T11:39:04.688Z,52.95
2023-03-16T11:41:40.637Z,50.64
2023-03-16T11:44:15.628Z,46.03
2023-03-16T11:46:50.234Z,46.65
2023-03-16T11:49:35.872Z,47.15
2023-03-16T11:52:10.795Z,47.36
2023-03-16T11:54:49.242Z,45.32
2023-03-16T11:57:30.744Z,46.05
2023-03-16T12:00:06.184Z,44.40
2023-03-16T12:02:46.474Z,43.94
2023-03-16T12:05:36.430Z,43.84
2023-03-16T12:08:16.893Z,47.23
2023-03-16T12:10:47.219Z,48.87
2023-03-16T12:13:33.119Z,45.70
2023-03-16T12:16:02.651Z,49.36
2023-03-16T12:18:38.586Z,51.00
2023-03-16T12:21:12.285Z,44.15
2023-03-16T12:23:56.127Z,42.65
2023-03-16T12:26:26.459Z,42.43
2023-03-16T12:28:55.304Z,44.06
2023-03-16T12:31:25.239Z,44.44
2023-03-16T12:33:59.842Z,48.66
2023-03-16T12:36:44.536Z,46.39
2023-03-16T12:39:16.908Z,48.26
2023-03-16T12:41:54.098Z,47.75
2023-03-16T12:44:23.957Z,46.37
2023-03-16T12:46:57.677Z,47.99
2023-03-16T12:49:26.556Z,51.15
2023-03-16T12:52:01.501Z,49.10
2023-03-16T12:54:30.678Z,48.18
2023-03-16T12:57:02.159Z,50.70
2023-03-16T12:59:38.293Z,48.07
2023-03-16T13:02:06.744Z,50.09
2023-03-16T13:04:39.318Z,47.00
2023-03-16T13:07:09.160Z,49.06
2023-03-16T13:09:43.878Z,45.73
2023-03-16T13:12:23.503Z,46.96
2023-03-16T13:14:54.700Z,48.92
2023-03-16T13:17:28.484Z,48.71
2023-03-16T13:20:06.722Z,48.66
2023-03-16T13:22:45.224Z,50.79
2023-03-16T13:25:18.098Z,47.18
2023-03-16T13:27:47.723Z,49.26
2023-03-16T13:30:21.370Z,49.22
2023-03-16T13:32:49.456Z,50.38
2023-03-16T13:35:18.908Z,50.53
2023-03-16T13:37:47.203Z,50.21
2023-03-16T13:40:21.821Z,48.10
2023-03-16T13:42:52.800Z,49.50
2023-03-16T13:45:23.816Z,51.77
2023-03-16T13:47:52.128Z,48.97
2023-03-16T13:50:20.760Z,48.60
2023-03-16T13:52:57.019Z,49.06
2023-03-16T13:55:31.308Z,50.76
2023-03-16T13:57:59.141Z,49.88
2023-03-16T14:00:29.305Z,50.08
2023-03-16T14:02:59.246Z,49.80
2023-03-16T14:05:29.420Z,50.92
2023-03-16T14:08:00.504Z,51.32
2023-03-16T14:10:32.217Z,51.27
2023-03-16T14:13:09.177Z,49.18
2023-03-16T14:15:38.094Z,50.67
2023-03-16T14:18:15.585Z,50.38
2023-03-16T14:20:43.659Z,49.41
2023-03-16T14:23:23.136Z,50.53
2023-03-16T14:25:53.530Z,49.89
2023-03-16T14:28:23.876Z,51.58
2023-03-16T14:30:52.682Z,51.35
2023-03-16T14:33:30.944Z,52.18
2023-03-16T14:36:00.704Z,53.56
2023-03-16T14:38:31.978Z,50.87
2023-03-16T14:41:07.544Z,51.21
2023-03-16T14:43:38.242Z,53.39
2023-03-16T14:46:07.366Z,51.65
2023-03-16T14:48:35.952Z,52.81
2023-03-16T14:51:04.462Z,51.29
2023-03-16T14:53:32.110Z,49.95
2023-03-16T14:56:01.175Z,50.46
2023-03-16T14:58:28.809Z,49.86
2023-03-16T15:00:56.514Z,49.39
2023-03-16T15:03:32.996Z,50.05
2023-03-16T15:06:01.343Z,50.56
2023-03-16T15:08:32.092Z,52.25
2023-03-16T15:11:04.899Z,52.26
2023-03-16T15:13:47.112Z,50.95
2023-03-16T15:16:15.102Z,52.61
2023-03-16T15:18:43.371Z,50.77
2023-03-16T15:21:12.855Z,49.84
2023-03-16T15:23:41.507Z,50.09
2023-03-16T15:26:12.463Z,50.33
2023-03-16T15:28:40.121Z,50.49
2023-03-16T15:31:08.418Z,49.48
2023-03-16T15:33:36.115Z,49.82
2023-03-16T15:36:12.025Z,52.10
2023-03-16T15:38:40.783Z,50.17
2023-03-16T15:41:11.928Z,49.93
2023-03-16T15:43:40.549Z,51.98
2023-03-16T15:46:08.254Z,50.80
2023-03-16T15:48:35.929Z,50.75
2023-03-16T15:51:07.622Z,49.82
2023-03-16T15:53:38.394Z,51.54
2023-03-16T15:56:07.481Z,49.49
2023-03-16T15:58:38.081Z,50.30
2023-03-16T16:01:06.777Z,51.66
2023-03-16T16:03:34.804Z,51.28
2023-03-16T16:06:02.516Z,52.05
2023-03-16T16:08:30.208Z,51.33
2023-03-16T16:10:58.075Z,51.31
2023-03-16T16:13:37.460Z,52.24
2023-03-16T16:16:12.410Z,50.38
2023-03-16T16:18:40.211Z,51.04
2023-03-16T16:21:11.178Z,50.77
2023-03-16T16:23:38.904Z,52.45
2023-03-16T16:26:10.828Z,53.32
2023-03-16T16:28:38.467Z,51.34
2023-03-16T16:31:14.288Z,51.74
2023-03-16T16:33:41.989Z,53.97
2023-03-16T16:36:14.868Z,53.75
2023-03-16T16:38:42.532Z,53.47
2023-03-16T16:41:10.719Z,54.01
2023-03-16T16:43:40.346Z,54.31
2023-03-16T16:46:14.282Z,54.50
2023-03-16T16:48:44.841Z,52.78
2023-03-16T16:51:18.409Z,53.40
2023-03-16T16:53:46.109Z,54.31
2023-03-16T16:56:15.428Z,54.44
2023-03-16T16:58:43.810Z,56.36
2023-03-16T17:01:16.559Z,54.95
2023-03-16T17:03:44.219Z,56.85
2023-03-16T17:06:15.690Z,56.58
2023-03-16T17:08:43.743Z,57.04
2023-03-16T17:11:14.190Z,57.30
2023-03-16T17:13:41.954Z,57.71
2023-03-16T17:16:11.776Z,57.17
2023-03-16T17:18:40.809Z,58.36
2023-03-16T17:21:11.943Z,58.27
2023-03-16T17:23:39.702Z,58.42
2023-03-16T17:26:14.217Z,58.55
2023-03-16T17:28:45.613Z,59.37
2023-03-16T17:31:13.821Z,58.64
2023-03-16T17:33:43.097Z,59.25
2023-03-16T17:36:11.821Z,59.08
2023-03-16T17:38:39.693Z,59.28
2023-03-16T17:41:07.908Z,58.98
2023-03-16T17:43:35.803Z,59.34
2023-03-16T17:46:04.382Z,59.86
2023-03-16T17:48:33.605Z,60.77
2023-03-16T17:51:02.685Z,60.82
2023-03-16T17:53:30.337Z,61.24
2023-03-16T17:55:58.052Z,61.02
2023-03-16T17:58:28.882Z,61.84
2023-03-16T18:00:56.746Z,62.27
2023-03-16T18:03:29.329Z,62.61
2023-03-16T18:05:58.394Z,63.38
2023-03-16T18:08:29.670Z,63.17
2023-03-16T18:10:58.991Z,63.55
2023-03-16T18:13:28.881Z,63.58
2023-03-16T18:15:57.406Z,64.26
2023-03-16T18:18:27.756Z,64.72
2023-03-16T18:20:56.232Z,65.46
2023-03-16T18:23:25.650Z,66.25
2023-03-16T18:25:56.189Z,66.05
2023-03-16T18:28:24.231Z,65.93
2023-03-16T18:30:53.528Z,66.71
2023-03-16T18:33:25.313Z,66.51
2023-03-16T18:35:54.707Z,66.84
2023-03-16T18:38:30.120Z,67.41
2023-03-16T18:40:59.941Z,67.94
2023-03-16T18:43:28.520Z,68.27
2023-03-16T18:45:56.820Z,69.13
2023-03-16T18:48:27.857Z,68.92
2023-03-16T18:50:55.696Z,69.50
2023-03-16T18:53:23.798Z,69.04
2023-03-16T18:55:52.071Z,69.13
2023-03-16T18:58:23.940Z,69.46
2023-03-16T19:00:53.927Z,69.80
2023-03-16T19:03:24.753Z,70.52
2023-03-16T19:05:53.080Z,69.67
2023-03-16T19:08:21.355Z,70.73
2023-03-16T19:10:51.127Z,70.60
2023-03-16T19:13:22.494Z,71.22
2023-03-16T19:15:52.137Z,71.21
2023-03-16T19:18:20.056Z,72.89
2023-03-16T19:20:50.234Z,72.32
2023-03-16T19:23:21.742Z,72.05
2023-03-16T19:25:50.430Z,73.19
2023-03-16T19:28:23.977Z,72.83
2023-03-16T19:30:51.680Z,73.49
2023-03-16T19:33:22.105Z,73.42
2023-03-16T19:35:52.150Z,74.26
2023-03-16T19:38:20.449Z,74.07
2023-03-16T19:40:49.566Z,73.13
2023-03-16T19:43:18.711Z,73.68
2023-03-16T19:45:48.569Z,73.62
2023-03-16T19:48:20.342Z,73.67
2023-03-16T19:50:49.169Z,73.43
2023-03-16T19:53:19.531Z,73.97
2023-03-16T19:55:47.975Z,74.32
2023-03-16T19:58:21.162Z,74.57
2023-03-16T20:00:51.062Z,74.82
2023-03-16T20:03:18.789Z,73.97
2023-03-16T20:05:46.501Z,74.62
2023-03-16T20:08:23.009Z,73.70
2023-03-16T20:10:50.944Z,74.65
2023-03-16T20:13:18.929Z,74.83
2023-03-16T20:15:47.459Z,74.35
2023-03-16T20:18:18.880Z,74.24
2023-03-16T20:20:47.284Z,74.34
2023-03-16T20:23:19.658Z,74.70
2023-03-16T20:25:47.791Z,75.08
2023-03-16T20:28:19.667Z,75.60
2023-03-16T20:30:48.664Z,74.42
2023-03-16T20:33:23.818Z,75.50
2023-03-16T20:35:53.470Z,75.41
2023-03-16T20:38:21.843Z,75.84
2023-03-16T20:40:52.465Z,75.25
2023-03-16T20:43:25.443Z,75.74
2023-03-16T20:45:54.403Z,75.92
2023-03-16T20:48:25.432Z,76.19
2023-03-16T20:50:53.593Z,76.17
2023-03-16T20:53:21.553Z,77.30
2023-03-16T20:55:50.533Z,77.50
2023-03-16T20:58:24.677Z,78.18
2023-03-16T21:00:53.175Z,78.71
2023-03-16T21:03:23.953Z,79.31
2023-03-16T21:05:52.453Z,79.23
2023-03-16T21:08:20.742Z,79.49
2023-03-16T21:10:50.056Z,80.23
2023-03-16T21:13:19.778Z,80.32
2023-03-16T21:15:49.912Z,80.83
2023-03-16T21:18:19.870Z,81.47
2023-03-16T21:20:50.036Z,82.21
2023-03-16T21:23:20.749Z,82.37
2023-03-16T21:25:50.402Z,82.01
2023-03-16T21:28:19.167Z,83.04
2023-03-16T21:30:48.955Z,83.36
2023-03-16T21:33:21.403Z,83.94
2023-03-16T21:35:50.590Z,84.98
2023-03-16T21:38:20.485Z,84.86
2023-03-16T21:40:49.133Z,84.06
2023-03-16T21:43:17.205Z,83.86
2023-03-16T21:45:45.353Z,84.66
2023-03-16T21:48:15.526Z,86.00
2023-03-16T21:50:44.086Z,85.80
2023-03-16T21:53:20.731Z,85.97
2023-03-16T21:55:48.945Z,86.68
2023-03-16T21:58:17.916Z,87.06
2023-03-16T22:00:46.887Z,86.85
2023-03-16T22:03:24.672Z,87.76
2023-03-16T22:05:52.456Z,87.74
2023-03-16T22:08:23.175Z,88.03
2023-03-16T22:10:52.062Z,87.08
2023-03-16T22:13:20.344Z,88.19
2023-03-16T22:15:51.533Z,89.65
2023-03-16T22:18:28.209Z,90.53
2023-03-16T22:20:56.457Z,90.74
2023-03-16T22:23:32.004Z,89.97
2023-03-16T22:25:59.716Z,89.60
2023-03-16T22:28:28.092Z,88.77
2023-03-16T22:30:57.499Z,90.53
2023-03-16T22:33:28.207Z,90.49
2023-03-16T22:35:56.190Z,92.08
2023-03-16T22:38:23.865Z,92.10
2023-03-16T22:40:53.214Z,91.11
2023-03-16T22:43:25.384Z,90.73
2023-03-16T22:45:56.429Z,91.59
2023-03-16T22:48:27.282Z,93.94
2023-03-16T22:50:55.200Z,95.38
2023-03-16T22:53:26.741Z,96.02
2023-03-16T22:55:56.586Z,95.62
2023-03-16T22:58:29.547Z,96.29
2023-03-16T23:00:57.681Z,95.81
2023-03-16T23:03:25.857Z,96.78
2023-03-16T23:05:53.723Z,98.02
2023-03-16T23:08:23.517Z,98.62
2023-03-16T23:10:52.577Z,99.62
2023-03-16T23:13:25.138Z,99.60
2023-03-16T23:15:55.351Z,99.08
2023-03-16T23:18:24.913Z,98.24
2023-03-16T23:20:53.317Z,98.38
2023-03-16T23:23:21.044Z,98.48
2023-03-16T23:25:49.100Z,98.62
2023-03-16T23:28:18.791Z,99.01
2023-03-16T23:30:47.959Z,99.53
2023-03-16T23:33:16.323Z,99.94
2023-03-16T23:35:46.562Z,100.00
2023-03-16T23:38:14.600Z,100.00
2023-03-16T23:40:42.307Z,100.00
2023-03-16T23:43:10.077Z,100.00
2023-03-16T23:45:40.018Z,100.00
2023-03-16T23:48:14.196Z,100.00
2023-03-16T23:50:42.665Z,100.00
2023-03-16T23:53:13.515Z,100.00
2023-03-16T23:55:41.876Z,100.00
2023-03-16T23:58:09.939Z,100.00
